Terminal Aerodrome Forecast
Issued by NWS Springfield, MO

Home | Current Version | Previous Version | Text Only | Print | Product List | Glossary On
Versions: 1 2 3 4 5 6 7 8 9 10 11 12 13 14 15 16 17 18 19 20 21 22 23 24 25 26 27 28
000
FTUS43 KSGF 201700
TAFSGF
TAF
KSGF 201731Z 2018/2118 21006KT P6SM OVC009
      TEMPO 2018/2020 BKN010 OVC015
     FM202000 18005KT P6SM OVC015
     FM211000 16008KT 5SM BR OVC008
     FM211500 16009KT P6SM OVC015=

USA.gov is the U.S. government's official web portal to all federal, state and local government web resources and services.